Time;durP1;ratioP1;P1;durP2;ratioP2;P2;SDS_P1;SDS_P2;PMS_P1;PMS_P2;Temp;Humidity;BMP_temperature;BMP_pressure;BME280_temperature;BME280_humidity;BME280_pressure;Samples;Min_cycle;Max_cycle;Signal;HPM_P1;HPM_P2
2022/03/07 07:11:07;;;;;;;;;;;22.30;21.20;;;;;;450073;265;2230;-75
2022/03/07 07:13:13;;;;;;;;;;;22.30;21.20;;;;;;450004;263;1094;-75
2022/03/07 07:15:10;;;;;;;;;;;22.30;21.20;;;;;;450140;262;2031;-75
2022/03/07 07:17:12;;;;;;;;;;;22.30;21.20;;;;;;449954;262;995;-75
2022/03/07 07:19:13;;;;;;;;;;;22.30;21.20;;;;;;450014;262;1012;-75
2022/03/07 07:21:14;;;;;;;;;;;22.30;21.20;;;;;;450097;263;1022;-75
2022/03/07 07:23:16;;;;;;;;;;;22.30;21.30;;;;;;450048;262;1013;-75
2022/03/07 07:25:17;;;;;;;;;;;22.20;21.30;;;;;;449929;263;1220;-75
2022/03/07 07:27:20;;;;;;;;;;;22.30;21.30;;;;;;449867;262;2186;-75
2022/03/07 07:29:20;;;;;;;;;;;22.30;21.30;;;;;;449890;262;1467;-75
2022/03/07 07:31:21;;;;;;;;;;;22.30;21.20;;;;;;449917;263;1006;-75
2022/03/07 07:33:22;;;;;;;;;;;22.30;21.30;;;;;;449921;262;1026;-75
2022/03/07 07:35:24;;;;;;;;;;;22.30;21.20;;;;;;449923;261;1400;-75
2022/03/07 07:37:25;;;;;;;;;;;22.30;21.20;;;;;;449974;262;1035;-75
2022/03/07 07:39:26;;;;;;;;;;;22.40;21.20;;;;;;449823;262;1319;-75
2022/03/07 07:41:28;;;;;;;;;;;22.40;21.20;;;;;;449761;262;1031;-75
2022/03/07 07:43:29;;;;;;;;;;;22.40;21.20;;;;;;449808;263;990;-75
2022/03/07 07:45:30;;;;;;;;;;;22.40;21.20;;;;;;449718;263;2198;-75
2022/03/07 07:47:31;;;;;;;;;;;22.40;21.20;;;;;;449674;262;1193;-75
2022/03/07 07:49:33;;;;;;;;;;;22.30;21.30;;;;;;449675;262;1004;-75
2022/03/07 07:51:34;;;;;;;;;;;22.40;21.20;;;;;;449735;262;1057;-75
2022/03/07 07:53:36;;;;;;;;;;;22.40;21.20;;;;;;449721;260;1332;-75
2022/03/07 07:55:37;;;;;;;;;;;22.40;21.20;;;;;;449696;262;1747;-75
2022/03/07 07:57:39;;;;;;;;;;;22.40;21.30;;;;;;449804;263;1030;-76
2022/03/07 07:59:41;;;;;;;;;;;22.40;21.30;;;;;;449862;262;1137;-75
2022/03/07 08:01:42;;;;;;;;;;;22.30;21.30;;;;;;449774;263;1066;-75
2022/03/07 08:03:44;;;;;;;;;;;22.40;21.30;;;;;;449888;262;1146;-75
2022/03/07 08:05:48;;;;;;;;;;;22.30;21.30;;;;;;449768;262;2135;-75
2022/03/07 08:07:46;;;;;;;;;;;22.30;21.30;;;;;;449676;263;1558;-75
2022/03/07 08:09:48;;;;;;;;;;;22.30;21.30;;;;;;449657;262;1156;-76
2022/03/07 08:11:49;;;;;;;;;;;22.30;21.40;;;;;;449751;263;1104;-75
2022/03/07 08:13:50;;;;;;;;;;;22.30;21.40;;;;;;449697;262;1058;-75
2022/03/07 08:15:52;;;;;;;;;;;22.30;21.40;;;;;;449766;262;1282;-75
2022/03/07 08:17:53;;;;;;;;;;;22.20;21.40;;;;;;449837;263;1147;-75
2022/03/07 08:19:54;;;;;;;;;;;22.30;21.40;;;;;;449833;263;1021;-75
2022/03/07 08:21:56;;;;;;;;;;;22.40;21.40;;;;;;450322;263;2285;-75
2022/03/07 08:24:00;;;;;;;;;;;22.30;21.40;;;;;;450049;263;1692;-75
2022/03/07 08:25:58;;;;;;;;;;;22.30;21.40;;;;;;450182;263;2171;-75
2022/03/07 08:28:00;;;;;;;;;;;22.30;21.40;;;;;;449961;263;1379;-75
2022/03/07 08:30:01;;;;;;;;;;;22.40;21.40;;;;;;449998;262;970;-75
2022/03/07 08:32:02;;;;;;;;;;;22.40;21.40;;;;;;449985;263;1134;-75
2022/03/07 08:34:04;;;;;;;;;;;22.40;21.40;;;;;;449942;263;984;-76
2022/03/07 08:36:05;;;;;;;;;;;22.40;21.40;;;;;;449987;262;997;-75
2022/03/07 08:38:06;;;;;;;;;;;22.40;21.40;;;;;;449846;263;1366;-75
2022/03/07 08:40:08;;;;;;;;;;;22.30;21.50;;;;;;449963;262;1187;-75
2022/03/07 08:42:09;;;;;;;;;;;22.30;21.40;;;;;;449881;263;991;-75
2022/03/07 08:44:11;;;;;;;;;;;22.30;21.40;;;;;;449860;262;1009;-76
2022/03/07 08:46:12;;;;;;;;;;;22.30;21.40;;;;;;449621;263;2206;-75
2022/03/07 08:48:13;;;;;;;;;;;22.20;21.40;;;;;;449735;262;1227;-75
2022/03/07 08:50:17;;;;;;;;;;;22.20;21.50;;;;;;449731;263;1183;-75
2022/03/07 08:52:17;;;;;;;;;;;22.30;21.50;;;;;;449659;262;1536;-75
2022/03/07 08:54:18;;;;;;;;;;;22.30;21.40;;;;;;449554;262;1132;-75
2022/03/07 08:56:19;;;;;;;;;;;22.20;21.50;;;;;;449693;263;1243;-75
2022/03/07 08:58:20;;;;;;;;;;;22.20;21.50;;;;;;449674;262;1045;-75
2022/03/07 09:00:22;;;;;;;;;;;22.30;21.50;;;;;;449687;263;991;-75
2022/03/07 09:02:23;;;;;;;;;;;22.30;21.40;;;;;;449664;263;1065;-75
2022/03/07 09:04:25;;;;;;;;;;;22.30;21.40;;;;;;449699;262;1049;-75
2022/03/07 09:06:26;;;;;;;;;;;22.30;21.50;;;;;;449240;263;2206;-75
2022/03/07 09:08:28;;;;;;;;;;;22.30;21.50;;;;;;449421;263;1090;-75
2022/03/07 09:10:29;;;;;;;;;;;22.30;21.50;;;;;;449563;263;1270;-75
2022/03/07 09:12:30;;;;;;;;;;;22.30;21.50;;;;;;449183;262;1046;-75
2022/03/07 09:14:31;;;;;;;;;;;22.30;21.50;;;;;;449646;262;1003;-75
2022/03/07 09:16:33;;;;;;;;;;;22.30;21.50;;;;;;449730;262;1026;-75
2022/03/07 09:18:34;;;;;;;;;;;22.30;21.50;;;;;;449675;263;985;-75
2022/03/07 09:20:35;;;;;;;;;;;22.30;21.50;;;;;;449651;263;1121;-75
2022/03/07 09:22:37;;;;;;;;;;;22.30;21.50;;;;;;449681;262;1079;-75
2022/03/07 09:24:38;;;;;;;;;;;22.40;21.50;;;;;;449595;263;1046;-75
2022/03/07 09:26:39;;;;;;;;;;;22.30;21.50;;;;;;449365;263;2206;-75
2022/03/07 09:28:41;;;;;;;;;;;22.40;21.50;;;;;;449434;263;1059;-75
2022/03/07 09:30:42;;;;;;;;;;;22.30;21.50;;;;;;449424;263;1165;-75
2022/03/07 09:32:43;;;;;;;;;;;22.30;21.50;;;;;;449588;262;1054;-75
2022/03/07 09:34:45;;;;;;;;;;;22.30;21.50;;;;;;449680;263;1483;-75
2022/03/07 09:36:46;;;;;;;;;;;22.30;21.50;;;;;;449445;263;1006;-75
2022/03/07 09:38:50;;;;;;;;;;;22.40;21.50;;;;;;449480;263;1532;-75
2022/03/07 09:40:49;;;;;;;;;;;22.30;21.50;;;;;;449487;262;1551;-75
2022/03/07 09:42:50;;;;;;;;;;;22.40;21.50;;;;;;449541;262;1074;-75
2022/03/07 09:44:52;;;;;;;;;;;22.30;21.50;;;;;;449587;263;1012;-75
2022/03/07 09:46:53;;;;;;;;;;;22.30;21.50;;;;;;449748;262;2211;-75
2022/03/07 09:48:55;;;;;;;;;;;22.30;21.60;;;;;;449765;262;1107;-75
2022/03/07 09:50:56;;;;;;;;;;;22.30;21.60;;;;;;449457;262;1038;-75
2022/03/07 09:52:57;;;;;;;;;;;22.20;21.50;;;;;;449541;262;1137;-75
2022/03/07 09:54:59;;;;;;;;;;;22.40;21.50;;;;;;449649;262;1109;-75
2022/03/07 09:57:00;;;;;;;;;;;22.40;21.50;;;;;;449597;263;1207;-75
2022/03/07 09:59:01;;;;;;;;;;;22.40;21.50;;;;;;449721;262;1150;-75
2022/03/07 10:01:03;;;;;;;;;;;22.30;21.50;;;;;;449677;263;1142;-75
2022/03/07 10:03:05;;;;;;;;;;;22.50;21.50;;;;;;449668;263;1287;-75
2022/03/07 10:05:05;;;;;;;;;;;22.40;21.50;;;;;;449719;263;2169;-75
2022/03/07 10:07:07;;;;;;;;;;;22.40;21.50;;;;;;449579;262;2214;-75
2022/03/07 10:09:08;;;;;;;;;;;22.50;21.50;;;;;;449540;262;998;-75
2022/03/07 10:11:09;;;;;;;;;;;22.40;21.50;;;;;;449773;263;1249;-75
2022/03/07 10:13:11;;;;;;;;;;;22.40;21.50;;;;;;449756;263;1071;-75
2022/03/07 10:15:12;;;;;;;;;;;22.40;21.50;;;;;;449832;263;1097;-75
2022/03/07 10:17:13;;;;;;;;;;;22.50;21.50;;;;;;449788;262;1024;-75
2022/03/07 10:19:15;;;;;;;;;;;22.50;21.50;;;;;;449788;262;1025;-75
2022/03/07 10:21:16;;;;;;;;;;;22.40;21.50;;;;;;449666;262;1090;-75
2022/03/07 10:23:17;;;;;;;;;;;22.50;21.40;;;;;;449709;262;1441;-75
2022/03/07 10:25:19;;;;;;;;;;;22.60;21.40;;;;;;449674;262;1075;-76
2022/03/07 10:27:20;;;;;;;;;;;22.60;21.50;;;;;;449654;262;2163;-75
2022/03/07 10:29:21;;;;;;;;;;;22.50;21.50;;;;;;449690;263;1381;-75
2022/03/07 10:31:23;;;;;;;;;;;22.50;21.50;;;;;;449932;262;1816;-75
2022/03/07 10:33:24;;;;;;;;;;;22.40;21.50;;;;;;449718;262;1081;-75
2022/03/07 10:35:26;;;;;;;;;;;22.50;21.50;;;;;;449733;263;987;-75
2022/03/07 10:37:27;;;;;;;;;;;22.50;21.50;;;;;;449755;263;1081;-75
2022/03/07 10:39:28;;;;;;;;;;;22.50;21.50;;;;;;449686;263;1014;-75
2022/03/07 10:41:30;;;;;;;;;;;22.50;21.50;;;;;;449802;262;1205;-75
2022/03/07 10:43:31;;;;;;;;;;;22.50;21.50;;;;;;449873;262;1067;-75
2022/03/07 10:45:32;;;;;;;;;;;22.50;21.50;;;;;;449698;263;1011;-76
2022/03/07 10:47:34;;;;;;;;;;;22.50;21.50;;;;;;449713;263;2195;-75
2022/03/07 10:49:35;;;;;;;;;;;22.60;21.50;;;;;;449797;263;1026;-75
2022/03/07 10:51:36;;;;;;;;;;;22.60;21.40;;;;;;449708;263;1099;-75
2022/03/07 10:53:37;;;;;;;;;;;22.50;21.50;;;;;;449653;262;983;-76
2022/03/07 10:55:39;;;;;;;;;;;22.50;21.50;;;;;;449573;263;1053;-76
2022/03/07 10:57:40;;;;;;;;;;;22.40;21.50;;;;;;449625;263;1171;-75
2022/03/07 10:59:42;;;;;;;;;;;22.50;21.50;;;;;;449469;262;1153;-75
2022/03/07 11:01:43;;;;;;;;;;;22.50;21.50;;;;;;449606;262;993;-75
2022/03/07 11:03:44;;;;;;;;;;;22.40;21.50;;;;;;449639;263;997;-75
2022/03/07 11:05:46;;;;;;;;;;;22.30;21.60;;;;;;449532;263;1019;-75
2022/03/07 11:07:47;;;;;;;;;;;22.50;21.60;;;;;;449662;263;2136;-75
2022/03/07 11:09:52;;;;;;;;;;;22.30;21.60;;;;;;448963;262;963;-75
2022/03/07 11:11:50;;;;;;;;;;;22.40;21.60;;;;;;449673;262;1868;-75
2022/03/07 11:13:51;;;;;;;;;;;22.50;21.50;;;;;;449615;263;1146;-76
2022/03/07 11:15:52;;;;;;;;;;;22.50;21.40;;;;;;449677;262;1251;-75
2022/03/07 11:17:54;;;;;;;;;;;22.50;21.40;;;;;;449669;263;1084;-75
2022/03/07 11:19:55;;;;;;;;;;;22.60;21.50;;;;;;449676;262;1016;-75
2022/03/07 11:21:56;;;;;;;;;;;22.60;21.50;;;;;;449547;263;1169;-75
2022/03/07 11:23:58;;;;;;;;;;;22.50;21.40;;;;;;449640;263;1276;-75
2022/03/07 11:25:59;;;;;;;;;;;22.40;21.50;;;;;;449667;263;999;-75
2022/03/07 11:28:00;;;;;;;;;;;22.40;21.50;;;;;;449808;262;2210;-75
2022/03/07 11:30:01;;;;;;;;;;;22.40;21.50;;;;;;449702;263;987;-75
2022/03/07 11:32:03;;;;;;;;;;;22.50;21.50;;;;;;449489;263;1020;-75
2022/03/07 11:34:04;;;;;;;;;;;22.50;21.50;;;;;;449593;263;1014;-75
2022/03/07 11:36:05;;;;;;;;;;;22.50;21.40;;;;;;449641;262;1037;-75
2022/03/07 11:38:07;;;;;;;;;;;22.60;21.40;;;;;;449618;262;1062;-75
2022/03/07 11:40:08;;;;;;;;;;;22.70;21.40;;;;;;449600;263;1010;-75
2022/03/07 11:42:09;;;;;;;;;;;22.60;21.40;;;;;;449674;262;1332;-75
2022/03/07 11:44:13;;;;;;;;;;;22.60;21.40;;;;;;449717;263;975;-75
2022/03/07 11:46:12;;;;;;;;;;;22.50;21.40;;;;;;449752;263;1360;-75
2022/03/07 11:48:13;;;;;;;;;;;22.50;21.40;;;;;;449632;262;2190;-75
2022/03/07 11:50:18;;;;;;;;;;;22.50;21.40;;;;;;449565;262;1153;-75
2022/03/07 11:52:18;;;;;;;;;;;22.50;21.40;;;;;;449485;263;1582;-75
2022/03/07 11:54:19;;;;;;;;;;;22.60;21.30;;;;;;449488;263;1376;-76
2022/03/07 11:56:20;;;;;;;;;;;22.60;21.30;;;;;;449684;263;1069;-75
2022/03/07 11:58:21;;;;;;;;;;;22.50;21.30;;;;;;449868;262;1219;-75
2022/03/07 12:00:23;;;;;;;;;;;22.50;21.20;;;;;;449615;262;1035;-75
2022/03/07 12:02:24;;;;;;;;;;;22.60;21.30;;;;;;449677;263;1099;-75
2022/03/07 12:04:25;;;;;;;;;;;22.60;21.20;;;;;;449237;262;1058;-75
2022/03/07 12:06:27;;;;;;;;;;;22.60;21.20;;;;;;449815;263;1085;-75
2022/03/07 12:08:28;;;;;;;;;;;22.60;21.20;;;;;;449737;263;2128;-75
2022/03/07 12:10:30;;;;;;;;;;;22.50;21.20;;;;;;449787;262;999;-75
2022/03/07 12:12:31;;;;;;;;;;;22.40;21.20;;;;;;449620;263;1341;-75
2022/03/07 12:14:32;;;;;;;;;;;22.50;21.20;;;;;;449932;263;1008;-75
2022/03/07 12:16:34;;;;;;;;;;;22.60;21.10;;;;;;449735;262;1056;-75
2022/03/07 12:18:36;;;;;;;;;;;22.60;21.10;;;;;;449723;263;1006;-75
2022/03/07 12:20:37;;;;;;;;;;;22.50;21.10;;;;;;449580;262;1046;-75
2022/03/07 12:22:38;;;;;;;;;;;22.60;21.00;;;;;;449611;263;1057;-75
2022/03/07 12:24:40;;;;;;;;;;;22.50;21.00;;;;;;449259;263;1186;-75
2022/03/07 12:26:41;;;;;;;;;;;22.60;21.00;;;;;;449532;263;1031;-75
2022/03/07 12:28:43;;;;;;;;;;;22.50;21.00;;;;;;449575;263;2206;-75
2022/03/07 12:30:44;;;;;;;;;;;22.50;21.00;;;;;;449674;262;1355;-75
2022/03/07 12:32:45;;;;;;;;;;;22.50;20.90;;;;;;449638;262;1333;-75
2022/03/07 12:34:46;;;;;;;;;;;22.60;20.90;;;;;;449670;262;1034;-74
2022/03/07 12:36:48;;;;;;;;;;;22.60;20.90;;;;;;449813;262;978;-75
2022/03/07 12:38:49;;;;;;;;;;;22.70;20.80;;;;;;449644;262;1092;-75
2022/03/07 12:40:50;;;;;;;;;;;22.60;20.80;;;;;;449698;263;1032;-75
2022/03/07 12:42:52;;;;;;;;;;;22.60;20.80;;;;;;443460;265;1356;-75
2022/03/07 12:44:53;;;;;;;;;;;22.60;20.80;;;;;;449045;265;1173;-75
2022/03/07 12:46:54;;;;;;;;;;;22.60;20.80;;;;;;449712;262;1109;-75
2022/03/07 12:48:56;;;;;;;;;;;22.70;20.80;;;;;;449686;262;2199;-75
2022/03/07 12:50:57;;;;;;;;;;;22.70;20.70;;;;;;449606;263;1402;-75
2022/03/07 12:52:58;;;;;;;;;;;22.70;20.70;;;;;;449642;262;1024;-74
2022/03/07 12:55:00;;;;;;;;;;;22.60;20.70;;;;;;449648;263;1540;-75
2022/03/07 12:57:01;;;;;;;;;;;22.60;20.80;;;;;;449664;263;1086;-75
2022/03/07 12:59:03;;;;;;;;;;;22.50;20.70;;;;;;449942;262;1244;-75
2022/03/07 13:01:04;;;;;;;;;;;22.60;20.70;;;;;;449720;262;1062;-75
2022/03/07 13:03:05;;;;;;;;;;;22.50;20.60;;;;;;449833;262;981;-75
2022/03/07 13:05:07;;;;;;;;;;;22.50;20.60;;;;;;449736;262;1003;-75
2022/03/07 13:07:08;;;;;;;;;;;22.60;20.60;;;;;;449713;263;1034;-75
2022/03/07 13:09:09;;;;;;;;;;;22.60;20.60;;;;;;449645;262;2210;-75
2022/03/07 13:11:11;;;;;;;;;;;22.70;20.60;;;;;;449443;262;967;-75
2022/03/07 13:13:12;;;;;;;;;;;22.60;20.60;;;;;;449458;262;1092;-75
2022/03/07 13:15:13;;;;;;;;;;;22.60;20.60;;;;;;449966;262;1244;-75
2022/03/07 13:17:17;;;;;;;;;;;22.50;20.50;;;;;;449557;263;1102;-75
2022/03/07 13:19:16;;;;;;;;;;;22.60;20.50;;;;;;449647;263;1992;-75
2022/03/07 13:21:17;;;;;;;;;;;22.60;20.50;;;;;;449476;263;974;-75
2022/03/07 13:23:18;;;;;;;;;;;22.60;20.50;;;;;;449551;262;1089;-75
2022/03/07 13:25:20;;;;;;;;;;;22.50;20.40;;;;;;449595;263;1023;-75
2022/03/07 13:27:22;;;;;;;;;;;22.50;20.50;;;;;;449574;262;1102;-75
2022/03/07 13:29:24;;;;;;;;;;;22.50;20.50;;;;;;449643;263;2206;-75
2022/03/07 13:31:24;;;;;;;;;;;22.60;20.50;;;;;;449574;263;2328;-75
2022/03/07 13:33:25;;;;;;;;;;;22.50;20.40;;;;;;449544;262;1071;-75
2022/03/07 13:35:27;;;;;;;;;;;22.70;20.40;;;;;;449585;262;1010;-75
2022/03/07 13:37:28;;;;;;;;;;;22.70;20.40;;;;;;449942;262;1040;-74
2022/03/07 13:39:29;;;;;;;;;;;22.60;20.30;;;;;;449575;262;988;-75
2022/03/07 13:41:33;;;;;;;;;;;22.70;20.30;;;;;;449504;263;1071;-74
2022/03/07 13:43:32;;;;;;;;;;;22.60;20.20;;;;;;449778;262;1439;-75
2022/03/07 13:45:33;;;;;;;;;;;22.70;20.30;;;;;;449563;263;1301;-75
2022/03/07 13:47:35;;;;;;;;;;;22.70;20.20;;;;;;449688;262;984;-75
2022/03/07 13:49:36;;;;;;;;;;;22.70;20.20;;;;;;449581;262;2206;-75
2022/03/07 13:51:37;;;;;;;;;;;22.60;20.20;;;;;;449641;262;1172;-75
2022/03/07 13:53:39;;;;;;;;;;;22.60;20.30;;;;;;449949;263;1006;-75
2022/03/07 13:55:42;;;;;;;;;;;22.60;20.20;;;;;;449589;263;998;-75
2022/03/07 13:57:41;;;;;;;;;;;22.60;20.30;;;;;;449608;262;1423;-75
2022/03/07 13:59:43;;;;;;;;;;;22.50;20.20;;;;;;449734;263;1269;-75
2022/03/07 14:01:44;;;;;;;;;;;22.60;20.20;;;;;;449562;262;1157;-75
2022/03/07 14:03:46;;;;;;;;;;;22.60;20.20;;;;;;449983;262;1111;-75
2022/03/07 14:05:49;;;;;;;;;;;22.60;20.20;;;;;;449906;263;1472;-75
2022/03/07 14:07:48;;;;;;;;;;;22.60;20.20;;;;;;449956;262;2183;-75
2022/03/07 14:09:49;;;;;;;;;;;22.60;20.10;;;;;;449552;262;1115;-74
2022/03/07 14:11:51;;;;;;;;;;;22.40;20.20;;;;;;449629;263;1069;-75
2022/03/07 14:13:54;;;;;;;;;;;22.60;20.20;;;;;;449587;262;1043;-75
2022/03/07 14:15:53;;;;;;;;;;;22.60;20.10;;;;;;449607;261;1577;-74
2022/03/07 14:17:55;;;;;;;;;;;22.60;20.10;;;;;;449558;263;1064;-75
2022/03/07 14:19:56;;;;;;;;;;;22.50;20.10;;;;;;449703;263;995;-75
2022/03/07 14:21:57;;;;;;;;;;;22.60;20.10;;;;;;449491;262;982;-75
2022/03/07 14:23:59;;;;;;;;;;;22.60;20.00;;;;;;449518;263;1036;-74
2022/03/07 14:26:01;;;;;;;;;;;22.60;20.00;;;;;;449960;262;1478;-75
2022/03/07 14:28:02;;;;;;;;;;;22.50;20.00;;;;;;449705;263;2202;-75
2022/03/07 14:30:03;;;;;;;;;;;22.60;20.10;;;;;;449858;263;1195;-75
2022/03/07 14:32:04;;;;;;;;;;;22.50;20.10;;;;;;449626;263;1015;-75
2022/03/07 14:34:06;;;;;;;;;;;22.50;20.00;;;;;;449671;263;1020;-75
2022/03/07 14:36:07;;;;;;;;;;;22.50;20.10;;;;;;449989;263;1560;-74
2022/03/07 14:38:09;;;;;;;;;;;22.60;20.00;;;;;;450034;263;1324;-74
2022/03/07 14:40:10;;;;;;;;;;;22.60;20.00;;;;;;450051;263;1248;-75
2022/03/07 14:42:11;;;;;;;;;;;22.60;20.00;;;;;;449610;263;984;-75
2022/03/07 14:44:13;;;;;;;;;;;22.60;19.90;;;;;;450055;263;2157;-75
2022/03/07 14:46:14;;;;;;;;;;;22.60;20.00;;;;;;449926;262;1240;-76
2022/03/07 14:48:15;;;;;;;;;;;22.70;19.90;;;;;;449159;263;2210;-75
2022/03/07 14:50:17;;;;;;;;;;;22.70;19.90;;;;;;449705;262;1078;-75
2022/03/07 14:52:20;;;;;;;;;;;22.60;19.90;;;;;;449671;262;1364;-75
2022/03/07 14:54:19;;;;;;;;;;;22.60;19.90;;;;;;449549;263;1330;-75
2022/03/07 14:56:20;;;;;;;;;;;22.70;19.90;;;;;;449650;263;1069;-75
2022/03/07 14:58:22;;;;;;;;;;;22.60;19.90;;;;;;449650;263;1037;-75
2022/03/07 15:00:23;;;;;;;;;;;22.50;19.90;;;;;;449849;262;1105;-75
2022/03/07 15:02:24;;;;;;;;;;;22.60;19.90;;;;;;449585;263;992;-75
2022/03/07 15:04:26;;;;;;;;;;;22.60;19.90;;;;;;449686;262;1066;-75
2022/03/07 15:06:29;;;;;;;;;;;22.60;19.90;;;;;;449622;262;1027;-75
2022/03/07 15:08:29;;;;;;;;;;;22.60;19.90;;;;;;449636;262;2221;-76
2022/03/07 15:10:31;;;;;;;;;;;22.70;19.90;;;;;;449607;262;1015;-75
2022/03/07 15:12:32;;;;;;;;;;;22.80;19.80;;;;;;450040;262;1531;-75
2022/03/07 15:14:33;;;;;;;;;;;22.80;19.70;;;;;;449596;262;949;-75
2022/03/07 15:16:34;;;;;;;;;;;22.80;19.70;;;;;;449625;263;1210;-75
2022/03/07 15:18:36;;;;;;;;;;;22.70;19.70;;;;;;449983;262;1633;-75
2022/03/07 15:20:37;;;;;;;;;;;22.70;19.80;;;;;;449628;263;1013;-75
2022/03/07 15:22:38;;;;;;;;;;;22.70;19.70;;;;;;449561;263;1000;-75
2022/03/07 15:24:40;;;;;;;;;;;22.70;19.80;;;;;;449583;262;1073;-75
2022/03/07 15:26:41;;;;;;;;;;;22.70;19.80;;;;;;449633;262;1018;-75
2022/03/07 15:28:42;;;;;;;;;;;22.70;19.70;;;;;;449760;262;2135;-75
2022/03/07 15:30:44;;;;;;;;;;;22.80;19.70;;;;;;449823;263;1537;-75
2022/03/07 15:32:45;;;;;;;;;;;22.80;19.70;;;;;;449727;263;1015;-75
2022/03/07 15:34:48;;;;;;;;;;;22.80;19.70;;;;;;449681;262;993;-75
2022/03/07 15:36:48;;;;;;;;;;;22.70;19.70;;;;;;449688;262;1377;-75
2022/03/07 15:38:49;;;;;;;;;;;22.70;19.80;;;;;;449617;262;1038;-75
2022/03/07 15:40:53;;;;;;;;;;;22.70;19.80;;;;;;449634;262;1027;-75
2022/03/07 15:42:52;;;;;;;;;;;22.70;19.80;;;;;;449722;263;1559;-75
2022/03/07 15:44:53;;;;;;;;;;;22.60;19.80;;;;;;449723;263;1261;-75
2022/03/07 15:46:55;;;;;;;;;;;22.70;19.70;;;;;;449713;262;1204;-75
2022/03/07 15:48:56;;;;;;;;;;;22.80;19.70;;;;;;449678;262;2202;-75
2022/03/07 15:50:59;;;;;;;;;;;22.80;19.70;;;;;;449606;263;1082;-74
2022/03/07 15:53:01;;;;;;;;;;;22.80;19.60;;;;;;449538;262;1265;-75
2022/03/07 15:55:00;;;;;;;;;;;22.80;19.70;;;;;;449717;262;1364;-75
2022/03/07 15:57:01;;;;;;;;;;;22.80;19.60;;;;;;449448;262;1275;-75
2022/03/07 15:59:03;;;;;;;;;;;22.70;19.60;;;;;;449532;262;1118;-74
2022/03/07 16:01:04;;;;;;;;;;;22.70;19.60;;;;;;449512;262;1149;-75
2022/03/07 16:03:05;;;;;;;;;;;22.80;19.60;;;;;;449602;262;1003;-75
2022/03/07 16:05:07;;;;;;;;;;;22.70;19.60;;;;;;449516;262;1075;-74
2022/03/07 16:07:09;;;;;;;;;;;22.60;19.60;;;;;;449680;262;1154;-75
2022/03/07 16:09:10;;;;;;;;;;;22.60;19.60;;;;;;449611;262;2181;-75
2022/03/07 16:11:11;;;;;;;;;;;22.60;19.60;;;;;;449644;263;1165;-75
2022/03/07 16:13:12;;;;;;;;;;;22.60;19.70;;;;;;449533;262;1161;-75
2022/03/07 16:15:14;;;;;;;;;;;22.60;19.60;;;;;;449553;262;983;-75
2022/03/07 16:17:15;;;;;;;;;;;22.60;19.60;;;;;;449574;262;1156;-75
2022/03/07 16:19:16;;;;;;;;;;;22.60;19.60;;;;;;449689;262;1081;-75
2022/03/07 16:21:18;;;;;;;;;;;22.70;19.60;;;;;;449608;263;1054;-75
2022/03/07 16:23:21;;;;;;;;;;;22.60;19.60;;;;;;449629;262;1051;-75
2022/03/07 16:25:20;;;;;;;;;;;22.60;19.60;;;;;;449622;263;1408;-75
2022/03/07 16:27:22;;;;;;;;;;;22.60;19.60;;;;;;449574;262;1063;-75
2022/03/07 16:29:23;;;;;;;;;;;22.60;19.60;;;;;;449543;263;2202;-75
2022/03/07 16:31:24;;;;;;;;;;;22.60;19.60;;;;;;449531;262;1190;-75
2022/03/07 16:33:25;;;;;;;;;;;22.70;19.60;;;;;;449509;262;1090;-75
2022/03/07 16:35:27;;;;;;;;;;;22.60;19.60;;;;;;449651;262;1109;-76
2022/03/07 16:37:29;;;;;;;;;;;22.50;19.60;;;;;;449616;263;1052;-75
2022/03/07 16:39:30;;;;;;;;;;;22.50;19.60;;;;;;449730;262;1360;-75
2022/03/07 16:41:31;;;;;;;;;;;22.60;19.60;;;;;;449670;262;1113;-75
2022/03/07 16:43:32;;;;;;;;;;;22.60;19.60;;;;;;449623;262;1005;-75
2022/03/07 16:45:33;;;;;;;;;;;22.60;19.60;;;;;;449683;262;982;-75
2022/03/07 16:47:35;;;;;;;;;;;22.60;19.60;;;;;;449610;262;1160;-75
2022/03/07 16:49:38;;;;;;;;;;;22.60;19.60;;;;;;449601;263;2202;-75
2022/03/07 16:51:38;;;;;;;;;;;22.60;19.60;;;;;;449627;262;1451;-75
2022/03/07 16:53:40;;;;;;;;;;;22.60;19.60;;;;;;449681;263;1003;-75
2022/03/07 16:55:41;;;;;;;;;;;22.60;19.60;;;;;;449667;262;1042;-75
2022/03/07 16:57:42;;;;;;;;;;;22.50;19.60;;;;;;449669;262;1120;-75
2022/03/07 16:59:43;;;;;;;;;;;22.50;19.60;;;;;;449711;263;1219;-75
2022/03/07 17:01:45;;;;;;;;;;;22.60;19.60;;;;;;449692;262;1317;-75
2022/03/07 17:03:49;;;;;;;;;;;22.50;19.60;;;;;;449666;262;1051;-75
2022/03/07 17:05:47;;;;;;;;;;;22.50;19.60;;;;;;449740;263;1388;-75
2022/03/07 17:07:49;;;;;;;;;;;22.40;19.60;;;;;;449749;263;1134;-75
2022/03/07 17:09:50;;;;;;;;;;;22.40;19.60;;;;;;449717;262;2194;-75
2022/03/07 17:11:51;;;;;;;;;;;22.40;19.60;;;;;;449760;262;1098;-75
2022/03/07 17:13:53;;;;;;;;;;;22.40;19.60;;;;;;449708;262;1126;-75
2022/03/07 17:15:54;;;;;;;;;;;22.40;19.60;;;;;;449699;262;1182;-75
2022/03/07 17:17:55;;;;;;;;;;;22.50;19.60;;;;;;449676;263;1308;-76
2022/03/07 17:19:58;;;;;;;;;;;22.40;19.60;;;;;;449689;263;1126;-75
2022/03/07 17:21:59;;;;;;;;;;;22.30;19.60;;;;;;449734;263;1073;-75
2022/03/07 17:24:00;;;;;;;;;;;22.40;19.60;;;;;;449810;262;1134;-75
2022/03/07 17:26:01;;;;;;;;;;;22.50;19.60;;;;;;449785;263;1043;-75
2022/03/07 17:28:02;;;;;;;;;;;22.50;19.60;;;;;;449972;262;1051;-75
2022/03/07 17:30:04;;;;;;;;;;;22.40;19.60;;;;;;449951;263;2306;-75
2022/03/07 17:32:05;;;;;;;;;;;22.40;19.60;;;;;;450183;263;1096;-75
2022/03/07 17:34:06;;;;;;;;;;;22.50;19.60;;;;;;450055;262;996;-75
2022/03/07 17:36:08;;;;;;;;;;;22.50;19.60;;;;;;450023;263;1060;-75
2022/03/07 17:38:09;;;;;;;;;;;22.40;19.60;;;;;;450100;262;1054;-75
2022/03/07 17:40:11;;;;;;;;;;;22.40;19.60;;;;;;449914;263;1223;-75
2022/03/07 17:42:12;;;;;;;;;;;22.40;19.60;;;;;;449967;262;1483;-75
2022/03/07 17:44:13;;;;;;;;;;;22.40;19.60;;;;;;450037;263;1050;-75
2022/03/07 17:46:15;;;;;;;;;;;22.30;19.60;;;;;;450063;263;1081;-75
2022/03/07 17:48:16;;;;;;;;;;;22.30;19.70;;;;;;450124;262;1215;-75
2022/03/07 17:50:18;;;;;;;;;;;22.40;19.60;;;;;;450182;262;2131;-75
2022/03/07 17:52:19;;;;;;;;;;;22.30;19.70;;;;;;450118;263;1191;-75
2022/03/07 17:54:20;;;;;;;;;;;22.40;19.70;;;;;;450095;263;1113;-75
2022/03/07 17:56:22;;;;;;;;;;;22.40;19.70;;;;;;450154;262;1063;-75
2022/03/07 17:58:23;;;;;;;;;;;22.50;19.70;;;;;;450189;263;1054;-75
2022/03/07 18:00:24;;;;;;;;;;;22.40;19.60;;;;;;450127;263;1153;-75
2022/03/07 18:02:26;;;;;;;;;;;22.50;19.60;;;;;;450079;263;1200;-75
2022/03/07 18:04:27;;;;;;;;;;;22.40;19.60;;;;;;450164;262;1349;-75
2022/03/07 18:06:28;;;;;;;;;;;22.50;19.60;;;;;;450182;263;995;-75
2022/03/07 18:08:29;;;;;;;;;;;22.40;19.60;;;;;;450191;263;1055;-75
2022/03/07 18:10:31;;;;;;;;;;;22.50;19.60;;;;;;450219;263;2206;-75
2022/03/07 18:12:32;;;;;;;;;;;22.50;19.60;;;;;;450184;263;1103;-75
2022/03/07 18:14:34;;;;;;;;;;;22.40;19.60;;;;;;450238;262;1006;-75
2022/03/07 18:16:35;;;;;;;;;;;22.50;19.60;;;;;;450298;263;1297;-75
2022/03/07 18:18:36;;;;;;;;;;;22.40;19.60;;;;;;450298;262;1234;-75
2022/03/07 18:20:37;;;;;;;;;;;22.40;19.60;;;;;;450259;262;1038;-76
2022/03/07 18:22:39;;;;;;;;;;;22.50;19.60;;;;;;450299;262;1078;-75
2022/03/07 18:24:40;;;;;;;;;;;22.50;19.60;;;;;;450280;262;989;-75
2022/03/07 18:26:42;;;;;;;;;;;22.50;19.60;;;;;;450243;262;1030;-75
2022/03/07 18:28:43;;;;;;;;;;;22.40;19.60;;;;;;450187;263;1042;-75
2022/03/07 18:30:44;;;;;;;;;;;22.50;19.60;;;;;;450164;262;2191;-75
2022/03/07 18:32:45;;;;;;;;;;;22.50;19.60;;;;;;450133;263;1303;-75
2022/03/07 18:34:47;;;;;;;;;;;22.50;19.60;;;;;;450191;263;1294;-76
2022/03/07 18:36:48;;;;;;;;;;;22.50;19.60;;;;;;450180;263;989;-75
2022/03/07 18:38:49;;;;;;;;;;;22.50;19.60;;;;;;450177;263;1107;-75
2022/03/07 18:40:51;;;;;;;;;;;22.40;19.60;;;;;;450221;262;964;-75
2022/03/07 18:42:52;;;;;;;;;;;22.40;19.60;;;;;;450221;262;1043;-75
2022/03/07 18:44:55;;;;;;;;;;;22.30;19.60;;;;;;450275;263;1074;-75
2022/03/07 18:46:55;;;;;;;;;;;22.40;19.60;;;;;;450329;262;1457;-75
2022/03/07 18:48:56;;;;;;;;;;;22.40;19.60;;;;;;450285;262;1237;-75
2022/03/07 18:50:57;;;;;;;;;;;22.40;19.60;;;;;;450250;263;2136;-75
2022/03/07 18:52:59;;;;;;;;;;;22.40;19.60;;;;;;450201;262;991;-76
2022/03/07 18:55:00;;;;;;;;;;;22.50;19.60;;;;;;450280;262;953;-75
2022/03/07 18:57:01;;;;;;;;;;;22.30;19.60;;;;;;450235;262;977;-75
2022/03/07 18:59:03;;;;;;;;;;;22.40;19.60;;;;;;450318;262;947;-76
2022/03/07 19:01:04;;;;;;;;;;;22.50;19.60;;;;;;450324;262;1131;-75
2022/03/07 19:03:05;;;;;;;;;;;22.40;19.60;;;;;;450311;263;1318;-75
2022/03/07 19:05:06;;;;;;;;;;;22.50;19.50;;;;;;450352;262;954;-75
2022/03/07 19:07:10;;;;;;;;;;;22.50;19.60;;;;;;450339;262;1081;-76